Metelen UL

DE-0389 · Rhénanie du Nord-Westphalie, Allemagne

METAR anciennes DE-0389 · Metelen UL

Tu vois ci-dessous les METAR des derniers jours. Sélectionne une année pour parcourir les METAR plus anciens, à partir de l'année 2007.

30 mai 2024

Temps Code Temps Temp. Vue Base cloud Vent METAR/SPECI
14:20
V
20 °C 10 km+ - Var Var 2 kt METAR EDDG 301220Z AUTO VRB02KT 9999 FEW047 20/10 Q1005 NOSIG
13:50
V
19 °C 10 km+ - Var Var 2 kt METAR EDDG 301150Z AUTO VRB02KT CAVOK 19/10 Q1005 NOSIG
13:20
V
19 °C 10 km+ - 320° 320° 4 kt METAR EDDG 301120Z AUTO 32004KT 290V350 9999 FEW039 19/11 Q1005 NOSIG
12:50
V
20 °C 10 km+ 4.300 ft Var Var 4 kt METAR EDDG 301050Z AUTO VRB04KT 9999 SCT036 BKN043 20/10 Q1005 NOSIG
12:20
V
19 °C 10 km+ - Var Var 3 kt METAR EDDG 301020Z AUTO VRB03KT 9999 -SHRA FEW030 FEW///TCU 19/11 Q1005 NOSIG
11:50
V
20 °C 10 km+ - Var Var 2 kt METAR EDDG 300950Z AUTO VRB02KT 9999 FEW029 20/11 Q1005 NOSIG
11:20
V
19 °C 10 km+ - Var Var 3 kt METAR EDDG 300920Z AUTO VRB03KT 9999 FEW024 19/12 Q1005 NOSIG
10:50
V
17 °C 10 km+ - Var Var 3 kt METAR EDDG 300850Z AUTO VRB03KT 9999 FEW014 17/11 Q1006 NOSIG
10:20
V
17 °C 10 km+ - 140° 140° 3 kt METAR EDDG 300820Z AUTO 14003KT 080V230 9999 FEW005 17/13 Q1006 NOSIG
09:50
L
15 °C 10 km+ 300 ft 130° 130° 4 kt METAR EDDG 300750Z AUTO 13004KT 080V180 9999 BKN003 15/13 Q1006 BECMG SCT005
09:20
L
13 °C 1,8 km 100 ft Var Var 3 kt METAR EDDG 300720Z AUTO VRB03KT 1800 BR OVC001 13/13 Q1006 BECMG 6000 SCT005
08:50
L
13 °C 550 m 200 ft 150° 150° 3 kt METAR EDDG 300650Z AUTO 15003KT 080V200 0800 0550 R25/1000U FG VV002 13/12 Q1006 BECMG 3000 BR BKN005
08:20
L
12 °C 300 m 200 ft Var Var 2 kt METAR EDDG 300620Z AUTO VRB02KT 0350 0300 R25/0500N FG VV002 12/12 Q1006 BECMG 3000 BR BKN005
07:50
L
12 °C 250 m 200 ft 150° 150° 3 kt METAR EDDG 300550Z AUTO 15003KT 110V180 0300 0250 R25/0600N FG VV002 12/11 Q1005 BECMG 3000 BR BKN005
07:20
L
11 °C 200 m 200 ft 150° 150° 3 kt METAR EDDG 300520Z AUTO 15003KT 0250 0200 R25/0350N FG VV002 11/11 Q1005 BECMG 3000 BR BKN005
06:50
L
11 °C 300 m 100 ft Var Var 1 kt METAR EDDG 300450Z AUTO VRB01KT 0800 0300 R25/1500D FG OVC001 11/10 Q1005 TEMPO 2000 BCFG SCT001
06:20
L
10 °C 300 m - Var Var 1 kt METAR EDDG 300420Z AUTO VRB01KT 1000 0300 R25/1800D BCFG SCT001 10/09 Q1005 TEMPO 2000 BR BKN001
05:50
L
9 °C 400 m - Var Var 1 kt METAR EDDG 300350Z AUTO VRB01KT 0450 0400 R25/0600N FG FEW001 09/09 Q1005 BECMG 5000
05:20
L
9 °C 300 m - Var Var 2 kt METAR EDDG 300320Z AUTO VRB02KT 0450 0300 R25/1100U FG FEW001 09/09 Q1006 BECMG 0800
04:50
L
9 °C 600 m - Var Var 1 kt METAR EDDG 300250Z AUTO VRB01KT 0800 0600 R25/0900D FG NCD 09/09 Q1006 TEMPO 0500
04:20
L
10 °C 550 m - Var Var 1 kt METAR EDDG 300220Z AUTO VRB01KT 0700 0550 R25/1100D FG FEW040 10/09 Q1006 TEMPO 0500 FG
03:50
L
10 °C 400 m - Var Var 1 kt METAR EDDG 300150Z AUTO VRB01KT 0450 0400 R25/1100U FG NCD 10/10 Q1006 TEMPO 1500 BR
03:20
L
10 °C 1 km - Var Var 1 kt METAR EDDG 300120Z AUTO VRB01KT 1800 1000 R25/1200D BR NCD 10/10 Q1006 TEMPO 0500 FG
02:50
L
10 °C 600 m - Var Var 1 kt METAR EDDG 300050Z AUTO VRB01KT 1100 0600 R25/1200U BCFG NCD 10/10 Q1006 TEMPO 0500 FG
02:20
L
10 °C 350 m - Var Var 1 kt METAR EDDG 300020Z AUTO VRB01KT 1900 0350 R25/1200U BCFG NCD 10/10 Q1006 TEMPO 0500 FG
01:50
L
10 °C 500 m - Var Var 1 kt METAR EDDG 292350Z AUTO VRB01KT 0900 0500 R25/1000U FG NCD 10/09 Q1007 TEMPO 1500 BR
01:20
L
11 °C 650 m - Var Var 1 kt METAR EDDG 292320Z AUTO VRB01KT 0650 R25/1300D FG NCD 11/11 Q1007 TEMPO 1500 BR
00:50
V
11 °C 10 km+ - 140° 140° 2 kt METAR EDDG 292250Z AUTO 14002KT 9999 R25/1400U NSC 11/11 Q1007 TEMPO 0500 FG
00:20
L
11 °C 450 m - Var Var 1 kt METAR EDDG 292220Z AUTO VRB01KT 0500 0450 R25/0750D FG NCD 11/11 Q1007 TEMPO 1500 BR

29 mai 2024

Temps Code Temps Temp. Vue Base cloud Vent METAR/SPECI
23:50
L
11 °C 1 km - Var Var 1 kt METAR EDDG 292150Z AUTO VRB01KT 2000 1000 R25/1800U BR NCD 11/11 Q1007 TEMPO 0700 FG
23:20
L
12 °C 1 km - Var Var 2 kt METAR EDDG 292120Z AUTO VRB02KT 3200 1000 R25/1900N BR NCD 12/11 Q1008 TEMPO 0700
22:50
V
12 °C 10 km+ - Var Var 2 kt METAR EDDG 292050Z AUTO VRB02KT CAVOK 12/12 Q1008 TEMPO 0700 BCFG
22:20
V
13 °C 10 km+ - 130° 130° 2 kt METAR EDDG 292020Z AUTO 13002KT CAVOK 13/12 Q1008 NOSIG
21:50
V
14 °C 10 km+ - Var Var 1 kt METAR EDDG 291950Z AUTO VRB01KT CAVOK 14/13 Q1007 NOSIG
21:20
V
15 °C 10 km+ - Var Var 1 kt METAR EDDG 291920Z AUTO VRB01KT 9999 FEW040 15/14 Q1007 NOSIG
20:50
V
16 °C 10 km+ - 220° 220° 3 kt METAR EDDG 291850Z AUTO 22003KT 9999 FEW044 16/12 Q1007 NOSIG
20:20
V
17 °C 10 km+ - 280° 280° 3 kt METAR EDDG 291820Z AUTO 28003KT 240V330 CAVOK 17/13 Q1007 NOSIG
19:50
V
16 °C 10 km+ - 260° 260° 6 kt METAR EDDG 291750Z AUTO 26006KT CAVOK 16/12 Q1008 NOSIG
19:20
V
16 °C 10 km+ - 260° 260° 7 kt METAR EDDG 291720Z AUTO 26007KT 230V290 9999 FEW021 16/12 Q1008 NOSIG
18:50
V
17 °C 10 km+ - 230° 230° 6 kt METAR EDDG 291650Z AUTO 23006KT 200V260 9999 FEW024 17/13 Q1008 NOSIG
18:20
V
17 °C 10 km+ - 240° 240° 6 kt METAR EDDG 291620Z AUTO 24006KT 200V260 CAVOK 17/13 Q1008 NOSIG
17:50
V
16 °C 10 km+ - 240° 240° 8 kt METAR EDDG 291550Z AUTO 24008KT 210V270 9999 FEW029 16/13 Q1008 RESHRA NOSIG
17:20
V
15 °C 8 km - 240° 240° 13 kt METAR EDDG 291520Z AUTO 24013KT 8000 SHRA FEW023 SCT039 FEW///CB 15/13 Q1008 RETS BECMG 23009KT NSW
16:50
V
17 °C 10 km+ - 200° 200° 9 kt METAR EDDG 291450Z AUTO 20009KT 170V230 9999 -SHRA VCTS FEW022 FEW///CB 17/12 Q1007 RESHRA TEMPO 4000 TSRA BKN025CB
16:20
V
18 °C 10 km+ - 190° 190° 10 kt METAR EDDG 291420Z AUTO 19010KT 160V220 9999 -SHRA FEW026 FEW///TCU 18/13 Q1007 TEMPO FM1445 4000 SHRA
15:50
V
18 °C 10 km+ - 240° 240° 10 kt METAR EDDG 291350Z AUTO 24010KT 200V260 9999 VCSH FEW023 SCT031 FEW///CB 18/13 Q1007 TEMPO FM1430 TSRA BKN025CB
15:20
V
18 °C 10 km+ - 210° 210° 10 kt METAR EDDG 291320Z AUTO 21010KT 180V250 9999 FEW033 18/12 Q1008 NOSIG
14:50
V
18 °C 10 km+ - 230° 230° 10 kt METAR EDDG 291250Z AUTO 23010KT 190V250 CAVOK 18/13 Q1008 NOSIG
14:20
V
16 °C 10 km+ - 220° 220° 7 kt METAR EDDG 291220Z AUTO 22007KT 190V260 9999 VCSH FEW046 FEW///CB 16/13 Q1009 RESHRA NOSIG
13:50
V
15 °C 10 km+ - 250° 250° 13 kt METAR EDDG 291150Z AUTO 25013KT 210V280 9999 SHRA FEW010 SCT035 FEW///CB 15/12 Q1009 BECMG NSW
13:20
M
16 °C 10 km+ 1.900 ft 270° 270° 9 kt METAR EDDG 291120Z AUTO 27009KT 250V310 9999 SHRA BKN019 BKN026 BKN036 FEW///CB 16/13 Q1009 TEMPO 4000 +TSRA
12:50
M
17 °C 10 km+ 1.900 ft 250° 250° 11 kt METAR EDDG 291050Z AUTO 25011KT 9999 SHRA BKN019 BKN030 BKN048 FEW///CB 17/12 Q1009 TEMPO 4000 +SHRA
12:20
V
17 °C 10 km+ - 190° 190° 10 kt METAR EDDG 291020Z AUTO 19010KT 160V230 9999 VCSH SCT018 SCT034 FEW///CB 17/14 Q1009 TEMPO SHRA
11:50
M
17 °C 10 km+ 1.700 ft 210° 210° 11 kt METAR EDDG 290950Z AUTO 21011KT 190V250 9999 BKN017 17/14 Q1009 TEMPO SHRA BKN020CB
11:20
M
16 °C 10 km+ 1.700 ft 210° 210° 11 kt METAR EDDG 290920Z AUTO 21011KT 180V240 9999 -SHRA BKN017 FEW///TCU 16/13 Q1009 RESHRA
10:50
M
15 °C 8 km 1.000 ft 220° 220° 7 kt METAR EDDG 290850Z AUTO 22007KT 160V250 8000 SHRA BKN010 BKN018 BKN026 SCT///TCU 15/14 Q1009 BECMG 9999 NSW
10:20
M
15 °C 10 km+ 1.300 ft 190° 190° 9 kt METAR EDDG 290820Z AUTO 19009KT 160V220 9999 -RA FEW009 BKN013 OVC023 15/14 Q1009 TEMPO SHRA BKN012TCU
09:50
M
15 °C 10 km+ 1.000 ft 190° 190° 10 kt METAR EDDG 290750Z AUTO 19010KT 150V230 9999 -DZ SCT007 BKN010 OVC016 15/14 Q1009 RERA TEMPO BKN012
09:20
I
15 °C 2,9 km 700 ft 190° 190° 10 kt METAR EDDG 290720Z AUTO 19010KT 150V220 2900 RA BR BKN007 BKN013 15/14 Q1009 TEMPO 4000 RADZ BKN012
08:50
I
15 °C 4,9 km 900 ft 190° 190° 10 kt METAR EDDG 290650Z AUTO 19010KT 150V210 4900 -RADZ BR FEW006 BKN009 BKN014 15/14 Q1009 RERA TEMPO 4000 BR BKN012
08:20
M
15 °C 10 km+ 1.200 ft 180° 180° 10 kt METAR EDDG 290620Z AUTO 18010KT 160V220 9999 -RA BKN012 OVC016 15/13 Q1009 TEMPO RA BKN009
07:50
M
15 °C 10 km+ 1.400 ft 180° 180° 8 kt METAR EDDG 290550Z AUTO 18008KT 9999 -RA BKN014 BKN020 15/13 Q1010 RERA TEMPO 4000 BR BKN008
07:20
M
15 °C 10 km+ 1.900 ft 170° 170° 8 kt METAR EDDG 290520Z AUTO 17008KT 140V210 9999 -RA BKN019 BKN025 15/13 Q1010 RERA TEMPO SHRA BKN013TCU
06:50
M
14 °C 10 km+ 2.100 ft 170° 170° 6 kt METAR EDDG 290450Z AUTO 17006KT 130V190 9999 BKN021 BKN034 BKN046 14/13 Q1010 TEMPO 4000 SHRA BKN007TCU
06:20
M
14 °C 10 km+ 1.700 ft 160° 160° 8 kt METAR EDDG 290420Z AUTO 16008KT 130V190 9999 FEW006 SCT011 OVC017 14/13 Q1010 TEMPO 4000 SHRA BKN010TCU
05:50
M
14 °C 6 km 2.200 ft 170° 170° 6 kt METAR EDDG 290350Z AUTO 17006KT 140V200 6000 -RADZ SCT006 BKN022 OVC038 14/13 Q1010 RERA TEMPO 4000 RA BKN006
05:20
M
14 °C 10 km+ 2.200 ft 150° 150° 7 kt METAR EDDG 290320Z AUTO 15007KT 9999 -RA FEW006 BKN022 BKN036 14/13 Q1011 RERA TEMPO 4000 BKN008
04:50
M
14 °C 6 km 3.200 ft 170° 170° 7 kt METAR EDDG 290250Z AUTO 17007KT 140V210 6000 -RA FEW009 BKN032 OVC038 14/13 Q1011 RERA TEMPO 4000 RA BKN009
04:20
M
14 °C 10 km+ 2.900 ft 170° 170° 6 kt METAR EDDG 290220Z AUTO 17006KT 140V210 9999 -RA FEW008 BKN029 BKN038 14/13 Q1011 RERA TEMPO 4000 RA BKN008
03:50
I
14 °C 4,4 km 3.300 ft 170° 170° 9 kt METAR EDDG 290150Z AUTO 17009KT 140V210 4400 +RA BR SCT007 BKN033 BKN045 14/13 Q1012 BECMG RA BKN007
03:20
I
14 °C 10 km+ 700 ft 190° 190° 7 kt METAR EDDG 290120Z AUTO 19007KT 150V220 9999 BKN007 BKN016 BKN044 14/13 Q1012 TEMPO 4000 RA
02:50
I
14 °C 7 km 700 ft 190° 190° 7 kt METAR EDDG 290050Z AUTO 19007KT 150V230 7000 -DZ BKN007 BKN010 14/13 Q1012 TEMPO 4000 RA
02:20
I
14 °C 10 km+ 900 ft 190° 190° 8 kt METAR EDDG 290020Z AUTO 19008KT 150V220 9999 BKN009 OVC017 14/13 Q1013 NOSIG
01:50
I
14 °C 10 km+ 900 ft 190° 190° 8 kt METAR EDDG 282350Z AUTO 19008KT 160V220 9999 -RA BKN009 BKN013 OVC022 14/13 Q1013 NOSIG
01:20
I
14 °C 10 km+ 900 ft 190° 190° 8 kt METAR EDDG 282320Z AUTO 19008KT 160V230 9999 OVC009 14/13 Q1013 TEMPO SCT008 BKN011
00:50
I
14 °C 10 km+ 700 ft 180° 180° 8 kt METAR EDDG 282250Z AUTO 18008KT 140V210 9999 BKN007 OVC011 14/13 Q1013 RERA TEMPO SCT007 BKN011
00:20
I
14 °C 7 km 800 ft 170° 170° 9 kt METAR EDDG 282220Z AUTO 17009KT 140V200 7000 -RA BKN008 OVC014 14/13 Q1013 RESHRA TEMPO SCT008 BKN014

28 mai 2024

Temps Code Temps Temp. Vue Base cloud Vent METAR/SPECI
23:50
M
14 °C 10 km+ 1.900 ft 160° 160° 9 kt METAR EDDG 282150Z AUTO 16009KT 130V220 9999 -RADZ SCT011 BKN019 BKN031 14/13 Q1013 RERA TEMPO BKN010
23:20
M
14 °C 10 km+ 2.200 ft 150° 150° 8 kt METAR EDDG 282120Z AUTO 15008KT 130V200 9999 -RA SCT016 BKN022 14/13 Q1014 TEMPO RA BKN012
22:50
M
14 °C 10 km+ 2.500 ft 150° 150° 7 kt METAR EDDG 282050Z AUTO 15007KT 9999 -RA FEW018 BKN025 BKN035 14/13 Q1014 TEMPO RA
22:20
M
13 °C 10 km+ 2.500 ft 140° 140° 5 kt METAR EDDG 282020Z AUTO 14005KT 100V170 9999 -RA BKN025 OVC031 13/13 Q1014 RERA TEMPO RA
21:50
M
14 °C 7 km - 180° 180° 6 kt METAR EDDG 281950Z AUTO 18006KT 150V210 7000 -RA SCT036 SCT046 14/13 Q1015 TEMPO RA
21:20
V
14 °C 10 km+ - 170° 170° 5 kt METAR EDDG 281920Z AUTO 17005KT 140V200 9999 -RA NSC 14/13 Q1015 TEMPO RA
20:50
V
14 °C 10 km+ - 190° 190° 6 kt METAR EDDG 281850Z AUTO 19006KT 160V220 9999 -RA NSC 14/12 Q1015 TEMPO RA
20:20
V
15 °C 10 km+ - 210° 210° 9 kt METAR EDDG 281820Z AUTO 21009KT 170V240 9999 -RA FEW043 15/12 Q1015 RERA NOSIG
19:50
V
17 °C 10 km+ 4.600 ft 210° 210° 10 - 22 kt METAR EDDG 281750Z AUTO 21010G22KT 180V250 9999 -RA FEW038 BKN046 17/11 Q1015 TEMPO RA
19:20
V
18 °C 10 km+ - 190° 190° 5 kt METAR EDDG 281720Z AUTO 19005KT 140V240 CAVOK 18/09 Q1015 TEMPO RA
18:50
V
19 °C 10 km+ - 200° 200° 7 kt METAR EDDG 281650Z AUTO 20007KT 130V230 CAVOK 19/08 Q1015 NOSIG
18:20
V
19 °C 10 km+ - 190° 190° 6 kt METAR EDDG 281620Z AUTO 19006KT 160V240 CAVOK 19/08 Q1015 NOSIG
17:50
V
19 °C 10 km+ - 200° 200° 8 kt METAR EDDG 281550Z AUTO 20008KT 160V250 9999 FEW048 19/08 Q1015 NOSIG
17:20
V
19 °C 10 km+ - 230° 230° 9 kt METAR EDDG 281520Z AUTO 23009KT 140V260 CAVOK 19/07 Q1016 NOSIG
16:50
V
20 °C 10 km+ - 200° 200° 9 kt METAR EDDG 281450Z AUTO 20009KT 150V250 9999 FEW048 20/07 Q1016 NOSIG
16:20
V
19 °C 10 km+ - 210° 210° 10 kt METAR EDDG 281420Z AUTO 21010KT 160V250 9999 FEW047 19/07 Q1016 NOSIG
15:50
V
19 °C 10 km+ - 220° 220° 11 kt METAR EDDG 281350Z AUTO 22011KT 200V260 9999 FEW043 19/08 Q1017 NOSIG
15:20
V
18 °C 10 km+ - 220° 220° 9 kt METAR EDDG 281320Z AUTO 22009KT 160V270 CAVOK 18/07 Q1017 NOSIG
14:50
V
17 °C 10 km+ - 230° 230° 12 kt METAR EDDG 281250Z AUTO 23012KT 9999 FEW041 SCT049 17/08 Q1017 NOSIG
14:20
V
18 °C 10 km+ - 210° 210° 9 kt METAR EDDG 281220Z AUTO 21009KT 180V250 9999 FEW046 18/06 Q1017 NOSIG
13:50
V
18 °C 10 km+ - 200° 200° 11 kt METAR EDDG 281150Z AUTO 20011KT 160V250 9999 FEW041 18/05 Q1017 NOSIG
13:20
V
17 °C 10 km+ - 230° 230° 9 kt METAR EDDG 281120Z AUTO 23009KT 190V270 9999 FEW039 17/07 Q1018 NOSIG
12:50
V
16 °C 10 km+ - 240° 240° 10 kt METAR EDDG 281050Z AUTO 24010KT 200V270 9999 FEW036 16/06 Q1018 NOSIG
12:20
V
17 °C 10 km+ 3.300 ft 240° 240° 10 kt METAR EDDG 281020Z AUTO 24010KT 190V280 9999 BKN033 BKN045 17/08 Q1018 NOSIG
11:50
M
16 °C 10 km+ 3.000 ft 220° 220° 10 kt METAR EDDG 280950Z AUTO 22010KT 170V270 9999 BKN030 BKN037 BKN043 16/08 Q1018 NOSIG
11:20
V
15 °C 10 km+ - 220° 220° 9 kt METAR EDDG 280920Z AUTO 22009KT 170V260 9999 FEW024 SCT035 15/07 Q1018 NOSIG
10:50
M
15 °C 10 km+ 2.900 ft 220° 220° 9 kt METAR EDDG 280850Z AUTO 22009KT 160V260 9999 SCT023 BKN029 15/09 Q1018 NOSIG
10:20
V
15 °C 10 km+ - 220° 220° 9 kt METAR EDDG 280820Z AUTO 22009KT 180V250 9999 FEW019 SCT040 15/09 Q1018 NOSIG
09:50
M
14 °C 10 km+ 2.800 ft 240° 240° 8 kt METAR EDDG 280750Z AUTO 24008KT 200V270 9999 SCT017 BKN028 BKN039 14/10 Q1018 NOSIG
09:20
M
14 °C 10 km+ 1.500 ft 230° 230° 7 kt METAR EDDG 280720Z AUTO 23007KT 190V270 9999 BKN015 BKN034 14/10 Q1018 NOSIG
08:50
V
14 °C 10 km+ - 230° 230° 6 kt METAR EDDG 280650Z AUTO 23006KT 180V270 9999 FEW011 SCT038 14/11 Q1018 NOSIG
08:20
M
12 °C 10 km+ 1.000 ft 230° 230° 8 kt METAR EDDG 280620Z AUTO 23008KT 9999 BKN010 BKN044 12/11 Q1018 BECMG SCT010 BKN020
07:50
I
12 °C 10 km+ 800 ft 240° 240° 6 kt METAR EDDG 280550Z AUTO 24006KT 200V270 9999 BKN008 BKN015 OVC049 12/11 Q1017 BECMG SCT010 BKN020
Signaler les modifications